createdAt,value
2022-12-31T00:01:28.637Z,247.65
2022-12-31T00:03:57.044Z,249.52
2022-12-31T00:06:27.390Z,253.05
2022-12-31T00:08:56.958Z,278.33
2022-12-31T00:11:26.562Z,283.92
2022-12-31T00:13:56.455Z,298.45
2022-12-31T00:16:25.666Z,280.23
2022-12-31T00:18:56.541Z,280.08
2022-12-31T00:21:24.379Z,237.18
2022-12-31T00:23:52.968Z,235.35
2022-12-31T00:26:25.151Z,248.27
2022-12-31T00:28:54.594Z,245.35
2022-12-31T00:31:27.927Z,239.43
2022-12-31T00:33:57.008Z,246.07
2022-12-31T00:36:30.209Z,291.85
2022-12-31T00:39:01.826Z,293.73
2022-12-31T00:41:29.616Z,285.48
2022-12-31T00:43:57.206Z,293.60
2022-12-31T00:46:25.203Z,318.48
2022-12-31T00:48:53.200Z,303.13
2022-12-31T00:51:23.907Z,298.85
2022-12-31T00:53:51.390Z,292.63
2022-12-31T00:56:21.481Z,319.30
2022-12-31T00:58:50.014Z,305.58
2022-12-31T01:01:25.486Z,293.52
2022-12-31T01:03:55.718Z,313.75
2022-12-31T01:06:23.836Z,292.65
2022-12-31T01:08:53.962Z,285.60
2022-12-31T01:11:22.720Z,284.42
2022-12-31T01:14:00.905Z,304.13
2022-12-31T01:16:32.429Z,297.98
2022-12-31T01:19:02.525Z,308.25
2022-12-31T01:21:31.781Z,305.38
2022-12-31T01:24:00.240Z,325.63
2022-12-31T01:26:28.375Z,293.90
2022-12-31T01:28:56.136Z,314.25
2022-12-31T01:31:24.980Z,270.35
2022-12-31T01:33:52.998Z,268.65
2022-12-31T01:36:26.261Z,266.70
2022-12-31T01:38:55.741Z,242.70
2022-12-31T01:41:33.019Z,244.60
2022-12-31T01:44:03.435Z,218.77
2022-12-31T01:46:54.912Z,237.45
2022-12-31T01:49:54.272Z,241.90
2022-12-31T01:52:32.670Z,252.20
2022-12-31T01:55:06.099Z,235.60
2022-12-31T01:57:35.030Z,247.77
2022-12-31T02:00:04.921Z,257.90
2022-12-31T02:02:32.856Z,240.52
2022-12-31T02:05:05.702Z,234.85
2022-12-31T02:07:33.233Z,255.55
2022-12-31T02:10:01.843Z,240.10
2022-12-31T02:12:29.552Z,271.08
2022-12-31T02:14:57.337Z,247.02
2022-12-31T02:17:43.410Z,272.33
2022-12-31T02:20:29.322Z,258.52
2022-12-31T02:22:56.762Z,259.15
2022-12-31T02:25:27.299Z,296.27
2022-12-31T02:28:27.998Z,297.63
2022-12-31T02:31:16.960Z,296.70
2022-12-31T02:34:09.045Z,292.15
2022-12-31T02:36:40.753Z,300.33
2022-12-31T02:39:10.112Z,299.10
2022-12-31T02:41:49.983Z,323.20
2022-12-31T02:44:20.495Z,313.77
2022-12-31T02:47:08.216Z,268.65
2022-12-31T02:50:05.141Z,320.23
2022-12-31T02:53:06.773Z,292.50
2022-12-31T02:55:55.421Z,308.27
2022-12-31T02:59:01.526Z,310.45
2022-12-31T03:01:53.907Z,317.02
2022-12-31T03:04:32.297Z,350.10
2022-12-31T03:07:05.866Z,390.17
2022-12-31T03:09:35.349Z,339.48
2022-12-31T03:12:23.984Z,300.63
2022-12-31T03:14:51.718Z,328.38
2022-12-31T03:17:19.633Z,312.58
2022-12-31T03:20:05.907Z,278.52
2022-12-31T03:22:36.475Z,264.55
2022-12-31T03:25:25.736Z,288.80
2022-12-31T03:27:54.056Z,296.35
2022-12-31T03:30:23.349Z,284.67
2022-12-31T03:32:51.595Z,272.23
2022-12-31T03:35:20.645Z,270.35
2022-12-31T03:37:49.390Z,293.42
2022-12-31T03:40:18.345Z,303.40
2022-12-31T03:42:46.534Z,298.88
2022-12-31T03:45:14.317Z,320.25
2022-12-31T03:47:41.900Z,293.48
2022-12-31T03:50:12.395Z,329.77
2022-12-31T03:52:39.929Z,326.33
2022-12-31T03:55:08.750Z,379.38
2022-12-31T03:57:36.788Z,479.35
2022-12-31T04:00:10.878Z,419.77
2022-12-31T04:02:38.780Z,406.25
2022-12-31T04:05:06.999Z,457.02
2022-12-31T04:07:34.680Z,410.38
2022-12-31T04:10:04.392Z,373.45
2022-12-31T04:12:32.663Z,374.33
2022-12-31T04:15:00.468Z,433.48
2022-12-31T04:17:27.989Z,355.27
2022-12-31T04:19:56.366Z,371.25
2022-12-31T04:22:23.887Z,346.55
2022-12-31T04:24:51.528Z,518.35
2022-12-31T04:27:19.106Z,421.38
2022-12-31T04:29:46.773Z,467.88
2022-12-31T04:32:14.365Z,345.45
2022-12-31T04:34:43.013Z,428.90
2022-12-31T04:37:10.568Z,403.83
2022-12-31T04:39:39.253Z,480.20
2022-12-31T04:42:06.807Z,502.65
2022-12-31T04:44:35.136Z,447.27
2022-12-31T04:47:02.690Z,533.40
2022-12-31T04:49:30.428Z,437.90
2022-12-31T04:51:57.857Z,499.38
2022-12-31T04:54:25.311Z,449.20
2022-12-31T04:56:52.864Z,315.83
2022-12-31T04:59:20.498Z,434.98
2022-12-31T05:01:48.149Z,448.88
2022-12-31T05:04:15.680Z,429.92
2022-12-31T05:06:43.266Z,419.75
2022-12-31T05:09:10.985Z,363.45
2022-12-31T05:11:39.355Z,342.75
2022-12-31T05:14:06.918Z,403.85
2022-12-31T05:16:34.520Z,441.10
2022-12-31T05:19:02.162Z,447.15
2022-12-31T05:21:29.711Z,370.08
2022-12-31T05:23:57.210Z,508.35
2022-12-31T05:26:24.667Z,420.35
2022-12-31T05:28:52.380Z,463.17
2022-12-31T05:31:20.156Z,456.17
2022-12-31T05:33:48.688Z,497.25
2022-12-31T05:36:16.193Z,468.48
2022-12-31T05:38:43.772Z,446.88
2022-12-31T05:41:11.712Z,466.13
2022-12-31T05:43:39.302Z,553.75
2022-12-31T05:46:06.863Z,436.77
2022-12-31T05:48:34.383Z,444.70
2022-12-31T05:51:01.911Z,487.45
2022-12-31T05:53:29.672Z,437.25
2022-12-31T05:55:57.248Z,442.00
2022-12-31T05:58:24.767Z,456.75
2022-12-31T06:00:52.745Z,434.33
2022-12-31T06:03:20.400Z,469.15
2022-12-31T06:05:48.013Z,427.48
2022-12-31T06:08:15.623Z,421.00
2022-12-31T06:10:45.822Z,392.25
2022-12-31T06:13:13.389Z,392.25
2022-12-31T06:15:40.937Z,428.08
2022-12-31T06:18:08.789Z,361.50
2022-12-31T06:20:37.807Z,338.98
2022-12-31T06:23:05.863Z,398.65
2022-12-31T06:25:35.684Z,393.20
2022-12-31T06:28:04.432Z,374.05
2022-12-31T06:30:32.441Z,283.30
2022-12-31T06:32:59.953Z,279.13
2022-12-31T06:35:27.463Z,305.25
2022-12-31T06:37:54.999Z,300.38
2022-12-31T06:40:22.531Z,323.67
2022-12-31T06:42:56.034Z,262.27
2022-12-31T06:45:28.262Z,289.95
2022-12-31T06:47:55.807Z,254.70
2022-12-31T06:50:23.359Z,301.33
2022-12-31T06:52:51.223Z,318.30
2022-12-31T06:55:19.096Z,228.77
2022-12-31T06:57:47.189Z,226.60
2022-12-31T07:00:15.413Z,206.93
2022-12-31T07:03:08.056Z,202.35
2022-12-31T07:05:50.664Z,211.27
2022-12-31T07:09:02.750Z,231.07
2022-12-31T07:11:44.893Z,214.68
2022-12-31T07:14:31.099Z,193.80
2022-12-31T07:17:23.506Z,207.48
2022-12-31T07:20:07.768Z,206.02
2022-12-31T07:22:36.713Z,217.15
2022-12-31T07:25:06.612Z,195.00
2022-12-31T07:27:42.843Z,212.93
2022-12-31T07:30:21.463Z,226.15
2022-12-31T07:33:26.183Z,229.48
2022-12-31T07:36:12.443Z,197.77
2022-12-31T07:38:53.182Z,235.45
2022-12-31T07:41:29.715Z,208.32
2022-12-31T07:43:57.889Z,230.85
2022-12-31T07:46:43.030Z,200.93
2022-12-31T07:49:14.213Z,241.02
2022-12-31T07:51:42.280Z,204.65
2022-12-31T07:54:13.874Z,252.68
2022-12-31T07:56:43.082Z,251.35
2022-12-31T07:59:24.563Z,197.77
2022-12-31T08:02:05.094Z,245.55
2022-12-31T08:04:42.503Z,280.55
2022-12-31T08:07:15.681Z,300.75
2022-12-31T08:09:45.942Z,340.80
2022-12-31T08:12:14.244Z,308.45
2022-12-31T08:14:47.227Z,261.98
2022-12-31T08:17:17.871Z,207.45
2022-12-31T08:19:46.289Z,386.27
2022-12-31T08:22:26.108Z,212.95
2022-12-31T08:25:21.212Z,283.88
2022-12-31T08:28:09.068Z,424.02
2022-12-31T08:31:04.363Z,323.05
2022-12-31T08:36:27.776Z,350.98
2022-12-31T08:39:07.668Z,319.50
2022-12-31T08:41:47.762Z,283.27
2022-12-31T08:44:33.691Z,224.10
2022-12-31T08:47:23.091Z,276.98
2022-12-31T08:49:51.004Z,246.43
2022-12-31T08:52:26.814Z,203.68
2022-12-31T08:54:55.020Z,205.70
2022-12-31T08:57:42.567Z,173.63
2022-12-31T09:00:16.906Z,172.85
2022-12-31T09:03:08.683Z,176.45
2022-12-31T09:06:00.468Z,143.32
2022-12-31T09:08:52.652Z,137.93
2022-12-31T09:11:34.011Z,145.75
2022-12-31T09:14:25.811Z,151.88
2022-12-31T09:16:56.562Z,217.10
2022-12-31T09:19:24.134Z,489.73
2022-12-31T09:21:51.995Z,418.75
2022-12-31T09:24:19.834Z,162.70
2022-12-31T09:26:56.152Z,189.13
2022-12-31T09:29:29.739Z,181.30
2022-12-31T09:32:20.880Z,140.23
2022-12-31T09:34:57.280Z,131.32
2022-12-31T09:37:30.965Z,138.52
2022-12-31T09:40:28.662Z,130.90
2022-12-31T09:43:14.560Z,125.67
2022-12-31T09:46:04.872Z,131.18
2022-12-31T09:49:03.676Z,114.63
2022-12-31T09:51:38.239Z,101.38
2022-12-31T09:54:17.641Z,104.75
2022-12-31T09:57:17.336Z,98.43
2022-12-31T10:00:10.968Z,91.05
2022-12-31T10:03:08.650Z,84.78
2022-12-31T10:09:01.563Z,81.82
2022-12-31T10:11:32.031Z,81.90
2022-12-31T10:14:33.441Z,62.55
2022-12-31T10:17:16.744Z,74.38
2022-12-31T10:20:05.752Z,58.67
2022-12-31T10:23:04.636Z,59.80
2022-12-31T10:25:50.392Z,83.10
2022-12-31T10:28:19.052Z,67.47
2022-12-31T10:31:03.113Z,67.38
2022-12-31T10:33:30.627Z,59.63
2022-12-31T10:36:21.040Z,161.55
2022-12-31T10:38:48.489Z,116.22
2022-12-31T10:41:25.029Z,79.47
2022-12-31T10:44:19.889Z,108.63
2022-12-31T10:47:19.407Z,177.13
2022-12-31T10:49:56.060Z,98.07
2022-12-31T10:52:45.492Z,68.65
2022-12-31T10:55:39.374Z,125.03
2022-12-31T10:58:21.991Z,75.70
2022-12-31T11:01:18.801Z,62.50
2022-12-31T11:04:20.454Z,100.38
2022-12-31T11:07:19.634Z,97.63
2022-12-31T11:10:20.401Z,67.72
2022-12-31T11:13:09.401Z,96.53
2022-12-31T11:15:42.038Z,115.80
2022-12-31T11:18:12.800Z,103.45
2022-12-31T11:20:56.049Z,92.38
2022-12-31T11:23:38.457Z,85.65
2022-12-31T11:26:55.425Z,146.82
2022-12-31T11:29:50.793Z,170.48
2022-12-31T11:32:45.281Z,82.47
2022-12-31T11:35:22.271Z,63.03
2022-12-31T11:38:15.017Z,57.00
2022-12-31T11:40:48.076Z,55.70
2022-12-31T11:43:15.459Z,49.70
2022-12-31T11:45:50.724Z,52.95
2022-12-31T11:48:30.578Z,53.08
2022-12-31T11:51:16.550Z,46.83
2022-12-31T11:54:01.231Z,47.47
2022-12-31T11:56:37.412Z,47.83
2022-12-31T11:59:18.848Z,48.28
2022-12-31T12:02:04.440Z,49.15
2022-12-31T12:04:32.022Z,45.45
2022-12-31T12:06:59.723Z,47.80
2022-12-31T12:09:30.228Z,47.80
2022-12-31T12:12:03.655Z,46.53
2022-12-31T12:14:35.273Z,44.28
2022-12-31T12:17:06.523Z,42.60
2022-12-31T12:19:36.106Z,42.13
2022-12-31T12:22:19.891Z,41.10
2022-12-31T12:24:56.936Z,39.42
2022-12-31T12:27:29.274Z,61.63
2022-12-31T12:29:57.486Z,57.63
2022-12-31T12:32:26.954Z,39.70
2022-12-31T12:34:54.461Z,34.60
2022-12-31T12:37:24.745Z,51.85
2022-12-31T12:40:02.327Z,43.38
2022-12-31T12:42:30.452Z,83.30
2022-12-31T12:45:35.637Z,35.72
2022-12-31T12:48:16.653Z,32.65
2022-12-31T12:50:47.470Z,38.75
2022-12-31T12:53:32.696Z,35.60
2022-12-31T12:56:18.875Z,53.70
2022-12-31T12:58:49.423Z,46.50
2022-12-31T13:01:34.956Z,40.30
2022-12-31T13:04:39.768Z,31.02
2022-12-31T13:07:18.988Z,48.03
2022-12-31T13:09:59.795Z,38.22
2022-12-31T13:12:27.323Z,36.17
2022-12-31T13:15:11.043Z,156.23
2022-12-31T13:17:48.289Z,85.50
2022-12-31T13:20:28.890Z,122.03
2022-12-31T13:23:36.274Z,38.95
2022-12-31T13:26:20.532Z,72.63
2022-12-31T13:28:50.824Z,67.28
2022-12-31T13:31:24.876Z,58.00
2022-12-31T13:34:15.491Z,58.28
2022-12-31T13:36:46.027Z,39.17
2022-12-31T13:39:41.905Z,33.95
2022-12-31T13:42:28.765Z,32.60
2022-12-31T13:45:02.375Z,33.47
2022-12-31T13:47:40.864Z,187.40
2022-12-31T13:50:26.842Z,99.85
2022-12-31T13:53:21.469Z,96.00
2022-12-31T13:56:02.058Z,39.70
2022-12-31T13:58:35.318Z,49.22
2022-12-31T14:01:14.775Z,38.88
2022-12-31T14:03:59.394Z,39.05
2022-12-31T14:06:38.729Z,35.65
2022-12-31T14:09:08.114Z,44.42
2022-12-31T14:12:06.356Z,41.17
2022-12-31T14:14:58.356Z,43.97
2022-12-31T14:17:59.867Z,47.08
2022-12-31T14:20:27.573Z,62.83
2022-12-31T14:22:58.020Z,66.05
2022-12-31T14:25:31.772Z,121.78
2022-12-31T14:28:02.577Z,105.78
2022-12-31T14:30:36.186Z,57.70
2022-12-31T14:33:17.423Z,67.23
2022-12-31T14:36:10.761Z,86.95
2022-12-31T14:38:38.507Z,87.53
2022-12-31T14:41:27.256Z,130.50
2022-12-31T14:43:54.694Z,98.00
2022-12-31T14:46:31.187Z,95.10
2022-12-31T14:49:17.025Z,101.90
2022-12-31T14:51:44.947Z,74.68
2022-12-31T14:54:29.362Z,77.43
2022-12-31T14:56:58.005Z,165.63
2022-12-31T14:59:35.649Z,131.48
2022-12-31T15:02:30.179Z,108.55
2022-12-31T15:05:15.845Z,105.40
2022-12-31T15:07:49.267Z,75.07
2022-12-31T15:12:59.996Z,104.45
2022-12-31T15:15:59.626Z,107.05
2022-12-31T15:18:39.252Z,86.20
2022-12-31T15:21:20.710Z,230.50
2022-12-31T15:23:49.834Z,139.90
2022-12-31T15:26:24.653Z,65.28
2022-12-31T15:29:05.348Z,69.13
2022-12-31T15:31:37.562Z,71.18
2022-12-31T15:34:24.306Z,80.05
2022-12-31T15:36:54.839Z,57.10
2022-12-31T15:39:42.778Z,58.80
2022-12-31T15:42:42.402Z,59.05
2022-12-31T15:45:37.412Z,60.33
2022-12-31T15:48:19.487Z,61.67
2022-12-31T15:50:51.261Z,61.22
2022-12-31T15:53:38.538Z,66.03
2022-12-31T15:56:08.451Z,62.13
2022-12-31T15:58:36.707Z,64.80
2022-12-31T16:01:20.996Z,70.40
2022-12-31T16:04:04.344Z,70.68
2022-12-31T16:06:37.023Z,65.30
2022-12-31T16:09:09.968Z,63.95
2022-12-31T16:11:41.767Z,61.10
2022-12-31T16:14:18.496Z,65.68
2022-12-31T16:16:58.332Z,70.63
2022-12-31T16:19:50.057Z,59.00
2022-12-31T16:22:38.606Z,58.58
2022-12-31T16:27:56.088Z,58.33
2022-12-31T16:30:28.073Z,73.45
2022-12-31T16:33:00.608Z,57.90
2022-12-31T16:35:34.128Z,58.05
2022-12-31T16:38:01.519Z,56.97
2022-12-31T16:40:29.361Z,61.03
2022-12-31T16:43:00.219Z,55.15
2022-12-31T16:45:32.107Z,59.20
2022-12-31T16:48:17.262Z,54.30
2022-12-31T16:50:47.733Z,54.00
2022-12-31T16:53:19.643Z,61.78
2022-12-31T16:56:02.036Z,57.20
2022-12-31T16:58:33.453Z,52.08
2022-12-31T17:01:23.265Z,64.90
2022-12-31T17:03:58.326Z,56.33
2022-12-31T17:06:28.160Z,51.45
2022-12-31T17:08:56.069Z,50.55
2022-12-31T17:11:39.256Z,57.75
2022-12-31T17:14:09.684Z,51.95
2022-12-31T17:17:03.480Z,60.13
2022-12-31T17:19:38.884Z,60.17
2022-12-31T17:22:13.832Z,63.65
2022-12-31T17:24:42.248Z,86.88
2022-12-31T17:27:10.448Z,72.53
2022-12-31T17:29:38.864Z,51.83
2022-12-31T17:32:31.220Z,48.28
2022-12-31T17:34:58.836Z,50.20
2022-12-31T17:37:31.485Z,47.47
2022-12-31T17:40:40.560Z,43.65
2022-12-31T17:42:51.429Z,44.65
2022-12-31T17:45:21.533Z,40.75
2022-12-31T17:47:52.000Z,44.95
2022-12-31T17:50:20.970Z,43.00
2022-12-31T17:52:48.908Z,43.72
2022-12-31T17:55:16.588Z,39.65
2022-12-31T17:58:05.959Z,47.58
2022-12-31T18:00:36.777Z,48.95
2022-12-31T18:03:04.481Z,58.67
2022-12-31T18:05:32.050Z,55.58
2022-12-31T18:07:59.648Z,78.07
2022-12-31T18:10:29.492Z,63.35
2022-12-31T18:13:01.849Z,142.73
2022-12-31T18:15:29.422Z,268.73
2022-12-31T18:17:57.121Z,569.05
2022-12-31T18:20:25.748Z,383.80
2022-12-31T18:22:53.330Z,204.57
2022-12-31T18:25:24.031Z,101.80
2022-12-31T18:27:52.533Z,63.45
2022-12-31T18:30:20.094Z,208.30
2022-12-31T18:32:47.783Z,87.85
2022-12-31T18:36:06.422Z,42.97
2022-12-31T18:38:14.720Z,164.65
2022-12-31T18:40:46.469Z,370.60
2022-12-31T18:43:17.427Z,375.08
2022-12-31T18:45:46.392Z,151.45
2022-12-31T18:48:14.550Z,53.25
2022-12-31T18:50:42.319Z,44.15
2022-12-31T18:53:22.264Z,53.85
2022-12-31T18:55:57.571Z,60.83
2022-12-31T18:58:25.053Z,85.28
2022-12-31T19:00:52.750Z,77.80
2022-12-31T19:03:23.333Z,66.38
2022-12-31T19:05:52.136Z,131.35
2022-12-31T19:08:21.771Z,191.15
2022-12-31T19:10:51.442Z,160.63
2022-12-31T19:13:20.201Z,92.95
2022-12-31T19:15:50.223Z,52.45
2022-12-31T19:18:17.953Z,90.03
2022-12-31T19:20:45.967Z,100.50
2022-12-31T19:23:19.577Z,58.88
2022-12-31T19:25:48.018Z,45.07
2022-12-31T19:28:18.325Z,231.45
2022-12-31T19:30:46.695Z,157.10
2022-12-31T19:33:14.947Z,187.52
2022-12-31T19:35:43.393Z,317.73
2022-12-31T19:38:18.933Z,82.88
2022-12-31T19:40:47.461Z,157.73
2022-12-31T19:43:18.875Z,88.80
2022-12-31T19:45:47.276Z,80.78
2022-12-31T19:48:18.469Z,49.55
2022-12-31T19:50:48.818Z,48.08
2022-12-31T19:53:22.333Z,46.55
2022-12-31T19:55:50.638Z,49.60
2022-12-31T19:58:21.431Z,241.95
2022-12-31T20:00:55.674Z,216.82
2022-12-31T20:03:25.083Z,150.13
2022-12-31T20:06:05.623Z,107.47
2022-12-31T20:08:34.547Z,60.15
2022-12-31T20:11:16.010Z,50.10
2022-12-31T20:13:43.763Z,58.80
2022-12-31T20:16:17.173Z,65.22
2022-12-31T20:18:46.800Z,56.90
2022-12-31T20:21:20.068Z,52.85
2022-12-31T20:23:51.865Z,62.70
2022-12-31T20:26:20.366Z,60.42
2022-12-31T20:28:48.694Z,57.38
2022-12-31T20:31:23.527Z,65.88
2022-12-31T20:33:53.656Z,60.65
2022-12-31T20:36:22.257Z,43.50
2022-12-31T20:38:50.329Z,44.50
2022-12-31T20:41:20.462Z,50.08
2022-12-31T20:43:50.968Z,86.20
2022-12-31T20:46:25.807Z,76.07
2022-12-31T20:48:56.063Z,47.40
2022-12-31T20:51:24.482Z,76.55
2022-12-31T20:53:55.478Z,79.18
2022-12-31T20:56:24.774Z,88.03
2022-12-31T20:58:52.343Z,84.15
2022-12-31T21:01:20.684Z,125.80
2022-12-31T21:04:05.964Z,141.38
2022-12-31T21:06:35.705Z,113.53
2022-12-31T21:09:05.838Z,66.82
2022-12-31T21:11:52.235Z,57.47
2022-12-31T21:14:20.065Z,47.45
2022-12-31T21:16:47.659Z,101.40
2022-12-31T21:19:15.810Z,76.25
2022-12-31T21:21:48.109Z,50.15
2022-12-31T21:24:21.801Z,47.95
2022-12-31T21:26:54.364Z,47.10
2022-12-31T21:29:21.894Z,47.58
2022-12-31T21:31:49.775Z,44.28
2022-12-31T21:34:17.348Z,47.85
2022-12-31T21:36:47.023Z,50.40
2022-12-31T21:39:14.669Z,50.33
2022-12-31T21:41:51.091Z,56.85
2022-12-31T21:44:26.964Z,59.50
2022-12-31T21:47:35.410Z,64.65
2022-12-31T21:50:05.307Z,86.32
2022-12-31T21:52:35.072Z,69.60
2022-12-31T21:55:25.292Z,64.35
2022-12-31T22:01:09.546Z,107.10
2022-12-31T22:03:37.276Z,90.00
2022-12-31T22:06:12.792Z,64.90
2022-12-31T22:08:41.810Z,91.85
2022-12-31T22:11:10.695Z,57.22
2022-12-31T22:13:38.604Z,46.58
2022-12-31T22:16:09.809Z,40.63
2022-12-31T22:18:39.332Z,44.67
2022-12-31T22:21:15.698Z,45.75
2022-12-31T22:23:48.630Z,53.35
2022-12-31T22:26:18.451Z,62.70
2022-12-31T22:28:46.625Z,67.60
2022-12-31T22:31:24.575Z,57.28
2022-12-31T22:33:52.560Z,70.45
2022-12-31T22:36:22.523Z,70.70
2022-12-31T22:38:55.696Z,63.58
2022-12-31T22:41:24.583Z,52.90
2022-12-31T22:44:00.503Z,45.72
2022-12-31T22:46:30.692Z,53.67
2022-12-31T22:48:59.677Z,55.17
2022-12-31T22:51:55.963Z,71.90
2022-12-31T22:54:15.198Z,96.03
2022-12-31T22:56:42.806Z,81.85
2022-12-31T22:59:11.808Z,80.95
2022-12-31T23:01:39.466Z,93.63
2022-12-31T23:04:07.063Z,81.53
2022-12-31T23:06:43.379Z,89.38
2022-12-31T23:09:30.975Z,99.07
2022-12-31T23:11:59.186Z,141.32
2022-12-31T23:14:46.434Z,161.13
2022-12-31T23:17:39.180Z,145.95
2022-12-31T23:20:29.461Z,96.45
2022-12-31T23:23:26.341Z,79.18
2022-12-31T23:26:01.223Z,75.70
2022-12-31T23:28:29.014Z,72.65
2022-12-31T23:30:56.653Z,74.68
2022-12-31T23:33:26.121Z,74.57
2022-12-31T23:36:07.499Z,86.00
2022-12-31T23:38:36.923Z,129.50
2022-12-31T23:41:16.048Z,145.85
2022-12-31T23:43:44.170Z,430.35
2022-12-31T23:46:13.032Z,485.75
2022-12-31T23:48:40.802Z,482.02
2022-12-31T23:51:08.481Z,362.10
2022-12-31T23:53:39.695Z,319.35
2022-12-31T23:56:20.872Z,253.73
2022-12-31T23:58:58.138Z,335.58
